Time;durP1;ratioP1;P1;durP2;ratioP2;P2;SDS_P1;SDS_P2;PMS_P1;PMS_P2;Temp;Humidity;BMP_temperature;BMP_pressure;BME280_temperature;BME280_humidity;BME280_pressure;Samples;Min_cycle;Max_cycle;Signal;HPM_P1;HPM_P2
2022/10/23 00:02:01;;;;;;;2.70;2.50;;;;;;;9.35;100.00;96622.03;5029826;28;103599;-58
2022/10/23 00:04:28;;;;;;;2.47;2.27;;;;;;;9.38;100.00;96621.56;5029278;28;105219;-57
2022/10/23 00:06:56;;;;;;;3.53;2.80;;;;;;;9.33;100.00;96616.94;5029793;28;101916;-57
2022/10/23 00:09:25;;;;;;;2.73;2.53;;;;;;;9.27;100.00;96603.84;5029714;28;105411;-56
2022/10/23 00:11:52;;;;;;;2.87;2.67;;;;;;;9.24;100.00;96604.31;5031955;27;105017;-55
2022/10/23 00:14:21;;;;;;;2.47;2.27;;;;;;;9.25;100.00;96609.38;5029568;28;105347;-57
2022/10/23 00:16:49;;;;;;;3.07;2.77;;;;;;;9.23;100.00;96608.81;5028964;28;105158;-57
2022/10/23 00:19:18;;;;;;;2.80;2.30;;;;;;;9.13;100.00;96610.47;5029525;28;101859;-58
2022/10/23 00:21:45;;;;;;;2.70;2.50;;;;;;;9.13;100.00;96613.09;5029468;28;105505;-57
2022/10/23 00:24:12;;;;;;;2.93;2.63;;;;;;;9.00;100.00;96603.56;5028782;28;105126;-57
2022/10/23 00:26:39;;;;;;;3.03;2.60;;;;;;;8.98;100.00;96604.84;5029545;28;101880;-57
2022/10/23 00:29:07;;;;;;;2.60;2.40;;;;;;;9.00;100.00;96605.44;5028950;28;105251;-58
2022/10/23 00:31:35;;;;;;;2.70;2.50;;;;;;;9.01;100.00;96609.69;5028432;28;105341;-57
2022/10/23 00:34:03;;;;;;;2.50;2.20;;;;;;;8.93;100.00;96604.72;5034014;28;101878;-57
2022/10/23 00:36:31;;;;;;;2.53;2.33;;;;;;;8.87;100.00;96600.38;5028764;28;105272;-57
2022/10/23 00:38:59;;;;;;;2.87;2.20;;;;;;;8.77;100.00;96608.16;5029108;28;102009;-57
2022/10/23 00:41:31;;;;;;;3.27;2.40;;;;;;;8.68;100.00;96598.94;5029028;28;104946;-55
2022/10/23 00:44:06;;;;;;;3.13;2.57;;;;;;;8.73;100.00;96596.38;5028287;28;105264;-57
2022/10/23 00:46:34;;;;;;;2.37;2.27;;;;;;;8.71;100.00;96603.75;5029482;28;102213;-57
2022/10/23 00:49:03;;;;;;;6.87;2.47;;;;;;;8.78;100.00;96609.75;5029078;28;105453;-58
2022/10/23 00:51:36;;;;;;;2.70;2.50;;;;;;;8.74;100.00;96604.09;5028252;28;105699;-57
2022/10/23 00:54:04;;;;;;;2.40;2.20;;;;;;;8.61;100.00;96601.69;5029100;28;102002;-57
2022/10/23 00:56:34;;;;;;;3.20;2.80;;;;;;;8.49;100.00;96589.47;5031524;28;105177;-55
2022/10/23 00:59:01;;;;;;;4.13;2.33;;;;;;;8.54;100.00;96586.94;5028937;28;101796;-56
2022/10/23 01:01:30;;;;;;;2.20;2.10;;;;;;;8.33;100.00;96583.06;5030379;28;102856;-57
2022/10/23 01:03:56;;;;;;;2.30;2.10;;;;;;;8.35;100.00;96593.44;5027974;28;106466;-57
2022/10/23 01:06:35;;;;;;;4.63;2.47;;;;;;;8.29;100.00;96591.72;5028927;28;101876;-58
2022/10/23 01:09:10;;;;;;;2.47;2.27;;;;;;;8.39;100.00;96591.94;5028902;28;105531;-57
2022/10/23 01:11:42;;;;;;;2.97;2.20;;;;;;;8.34;100.00;96597.13;5028011;28;105565;-58
2022/10/23 01:14:17;;;;;;;4.37;2.70;;;;;;;8.34;100.00;96591.81;5028701;28;101913;-57
2022/10/23 01:16:53;;;;;;;2.60;2.40;;;;;;;8.25;100.00;96588.72;5031660;28;104790;-57
2022/10/23 01:19:26;;;;;;;2.27;2.17;;;;;;;8.18;100.00;96587.19;5028430;28;101871;-57
2022/10/23 01:22:05;;;;;;;2.20;2.10;;;;;;;8.19;100.00;96586.13;5028805;28;105766;-55
2022/10/23 01:24:43;;;;;;;2.30;2.10;;;;;;;8.12;100.00;96582.81;5027203;28;105164;-58
2022/10/23 01:27:17;;;;;;;2.40;2.13;;;;;;;8.17;100.00;96588.19;5028351;28;101890;-55
2022/10/23 01:29:49;;;;;;;3.23;2.60;;;;;;;8.18;100.00;96592.47;5028451;28;105724;-58
2022/10/23 01:32:24;;;;;;;3.33;2.20;;;;;;;8.16;100.00;96589.22;5028047;28;105425;-55
2022/10/23 01:34:55;;;;;;;2.60;2.40;;;;;;;8.20;100.00;96585.94;5028175;28;101816;-56
2022/10/23 01:37:29;;;;;;;3.20;2.40;;;;;;;8.19;100.00;96584.28;5028298;28;105147;-57
2022/10/23 01:40:04;;;;;;;2.20;2.10;;;;;;;8.22;100.00;96588.34;5031149;28;105062;-57
2022/10/23 01:42:39;;;;;;;3.13;2.40;;;;;;;8.27;100.00;96585.81;5028548;28;103818;-56
2022/10/23 01:45:13;;;;;;;2.30;2.17;;;;;;;8.27;100.00;96580.50;5027431;28;105324;-57
2022/10/23 01:47:45;;;;;;;2.60;2.40;;;;;;;8.17;100.00;96569.66;5029438;27;101737;-56
2022/10/23 01:50:18;;;;;;;2.93;2.40;;;;;;;8.16;100.00;96557.44;5028634;28;105041;-57
2022/10/23 01:52:48;;;;;;;2.50;2.30;;;;;;;8.05;100.00;96560.91;5027095;28;105408;-56
2022/10/23 01:55:17;;;;;;;2.60;1.90;;;;;;;7.98;100.00;96568.16;5027775;28;103729;-58
2022/10/23 01:57:52;;;;;;;2.03;1.90;;;;;;;7.97;100.00;96563.91;5028262;28;105150;-56
2022/10/23 02:00:20;;;;;;;3.47;2.00;;;;;;;7.88;100.00;96555.50;5027616;28;104760;-57
2022/10/23 02:02:59;;;;;;;1.93;1.67;;;;;;;7.71;100.00;96569.63;5031557;28;102165;-56
2022/10/23 02:05:32;;;;;;;1.70;1.60;;;;;;;7.76;100.00;96567.09;5027444;28;105204;-57
2022/10/23 02:08:02;;;;;;;2.30;2.10;;;;;;;7.82;100.00;96567.00;5028036;28;102262;-57
2022/10/23 02:10:35;;;;;;;2.50;1.70;;;;;;;7.81;100.00;96562.72;5027963;28;105420;-57
2022/10/23 02:13:09;;;;;;;1.80;1.70;;;;;;;7.82;100.00;96559.06;5027427;28;105235;-57
2022/10/23 02:15:39;;;;;;;1.77;1.67;;;;;;;7.74;100.00;96563.91;5029196;28;101781;-56
2022/10/23 02:18:12;;;;;;;2.00;1.90;;;;;;;7.74;100.00;96551.44;5028112;28;105517;-56
2022/10/23 02:20:43;;;;;;;1.90;1.50;;;;;;;7.76;100.00;96551.22;5027181;28;104315;-55
2022/10/23 02:23:19;;;;;;;1.83;1.73;;;;;;;7.63;100.00;96546.94;5028046;28;101934;-56
2022/10/23 02:25:53;;;;;;;2.10;2.00;;;;;;;7.60;100.00;96547.41;5030187;28;104771;-57
2022/10/23 02:28:27;;;;;;;1.80;1.70;;;;;;;7.67;100.00;96534.88;5027980;28;101972;-57
2022/10/23 02:31:00;;;;;;;1.90;1.60;;;;;;;7.62;100.00;96533.94;5027221;28;104840;-55
2022/10/23 02:33:29;;;;;;;1.80;1.70;;;;;;;7.58;100.00;96524.84;5028592;28;103140;-57
2022/10/23 02:35:57;;;;;;;1.80;1.70;;;;;;;7.63;100.00;96531.06;5029729;27;102001;-57
2022/10/23 02:38:31;;;;;;;1.93;1.83;;;;;;;7.58;100.00;96524.84;5030758;28;104945;-57
2022/10/23 02:41:08;;;;;;;1.80;1.70;;;;;;;7.54;100.00;96521.88;5030289;28;105078;-57
2022/10/23 02:43:48;;;;;;;2.30;2.10;;;;;;;7.43;100.00;96524.47;5031295;28;102032;-57
2022/10/23 02:46:25;;;;;;;2.47;2.27;;;;;;;7.45;100.00;96514.47;5031028;28;103733;-58
2022/10/23 02:49:01;;;;;;;2.00;1.90;;;;;;;7.39;100.00;96521.50;5033932;28;105493;-56
2022/10/23 02:51:35;;;;;;;2.10;1.87;;;;;;;7.24;100.00;96526.38;5030832;28;105603;-58
2022/10/23 02:54:08;;;;;;;3.80;2.13;;;;;;;7.23;100.00;96529.25;5031816;28;103093;-57
2022/10/23 02:56:44;;;;;;;2.50;2.20;;;;;;;7.24;100.00;96528.22;5030787;28;102038;-56
2022/10/23 02:59:23;;;;;;;2.40;2.23;;;;;;;7.32;100.00;96527.91;5031005;28;104773;-57
2022/10/23 03:01:56;;;;;;;1.97;1.87;;;;;;;7.25;100.00;96517.41;5010272;28;105511;-54
2022/10/23 03:04:27;;;;;;;1.90;1.80;;;;;;;7.30;100.00;96520.19;5011384;28;101828;-55
2022/10/23 03:06:56;;;;;;;3.33;2.70;;;;;;;7.10;100.00;96506.44;5044444;27;104794;-57
2022/10/23 03:09:23;;;;;;;2.60;2.40;;;;;;;7.14;100.00;96517.41;5011401;28;105641;-56
2022/10/23 03:11:50;;;;;;;5.03;2.60;;;;;;;7.26;100.00;96521.66;5017563;28;101700;-57
2022/10/23 03:14:19;;;;;;;2.23;2.10;;;;;;;7.32;100.00;96522.63;5029864;28;104824;-57
2022/10/23 03:16:46;;;;;;;3.80;2.27;;;;;;;7.40;100.00;96528.38;5030693;28;102029;-57
2022/10/23 03:19:13;;;;;;;3.10;2.80;;;;;;;7.49;100.00;96528.88;5030628;28;105059;-56
2022/10/23 03:21:40;;;;;;;2.70;2.50;;;;;;;7.50;100.00;96536.56;5009826;28;104532;-56
2022/10/23 03:24:09;;;;;;;2.73;2.53;;;;;;;7.40;100.00;96530.22;5028722;28;101882;-57
2022/10/23 03:26:41;;;;;;;3.00;2.70;;;;;;;7.45;100.00;96536.44;5030033;28;104910;-55
2022/10/23 03:29:08;;;;;;;2.50;2.30;;;;;;;7.40;100.00;96532.84;5029592;28;105736;-57
2022/10/23 03:31:43;;;;;;;2.43;2.23;;;;;;;7.30;100.00;96536.06;5033605;28;101988;-58
2022/10/23 03:34:10;;;;;;;2.20;2.10;;;;;;;7.13;100.00;96539.56;5029763;28;105408;-57
2022/10/23 03:36:40;;;;;;;2.53;2.33;;;;;;;7.18;100.00;96532.59;5031402;28;101911;-57
2022/10/23 03:39:09;;;;;;;2.20;2.10;;;;;;;7.15;100.00;96527.72;5030443;28;105164;-55
2022/10/23 03:41:36;;;;;;;2.17;2.07;;;;;;;7.21;100.00;96520.75;5029262;28;104295;-56
2022/10/23 03:44:03;;;;;;;2.10;2.00;;;;;;;7.16;100.00;96523.25;5030124;28;101988;-57
2022/10/23 03:46:30;;;;;;;2.07;1.93;;;;;;;7.10;100.00;96518.88;5029215;28;105260;-57
2022/10/23 03:48:59;;;;;;;2.20;2.10;;;;;;;7.05;100.00;96516.91;5029311;28;105458;-57
2022/10/23 03:51:27;;;;;;;2.47;2.27;;;;;;;7.11;100.00;96515.19;5029922;28;101896;-54
2022/10/23 03:53:54;;;;;;;2.73;2.33;;;;;;;7.01;100.00;96510.47;5032930;28;103830;-56
2022/10/23 03:56:22;;;;;;;2.20;2.10;;;;;;;7.00;100.00;96508.84;5029621;28;101912;-57
2022/10/23 03:58:49;;;;;;;3.30;2.60;;;;;;;7.11;100.00;96500.16;5029909;28;104947;-56
2022/10/23 04:01:16;;;;;;;4.60;2.53;;;;;;;6.93;100.00;96502.03;5029053;28;105172;-57
2022/10/23 04:03:45;;;;;;;3.03;2.77;;;;;;;6.99;100.00;96509.06;5029491;28;102631;-57
2022/10/23 04:06:14;;;;;;;3.50;3.20;;;;;;;6.92;100.00;96511.00;5029602;28;104980;-58
2022/10/23 04:08:43;;;;;;;3.50;3.20;;;;;;;7.08;100.00;96518.28;5029021;28;105630;-57
2022/10/23 04:11:15;;;;;;;3.70;3.20;;;;;;;7.02;100.00;96512.06;5029475;28;101807;-57
2022/10/23 04:13:46;;;;;;;2.83;2.63;;;;;;;7.06;100.00;96507.13;5029887;28;107015;-57
2022/10/23 04:16:13;;;;;;;3.20;2.93;;;;;;;6.95;100.00;96513.19;5032450;28;104978;-57
2022/10/23 04:18:41;;;;;;;3.43;3.13;;;;;;;7.11;100.00;96515.19;5029788;28;104846;-57
2022/10/23 04:21:10;;;;;;;9.23;3.60;;;;;;;7.08;100.00;96520.91;5028781;28;105606;-55
2022/10/23 04:23:39;;;;;;;4.20;3.80;;;;;;;7.00;100.00;96513.31;5029106;28;102053;-56
2022/10/23 04:26:13;;;;;;;4.07;3.50;;;;;;;7.03;100.00;96505.75;5029218;28;105064;-58
2022/10/23 04:28:40;;;;;;;3.60;3.30;;;;;;;7.10;100.00;96503.00;5028683;28;105532;-56
2022/10/23 04:31:07;;;;;;;5.13;3.63;;;;;;;6.89;100.00;96485.00;5029270;28;101929;-56
2022/10/23 04:33:34;;;;;;;4.30;3.20;;;;;;;6.71;100.00;96483.22;5029147;28;105779;-57
2022/10/23 04:36:02;;;;;;;3.40;3.10;;;;;;;6.69;100.00;96480.00;5029997;28;103290;-56
2022/10/23 04:38:29;;;;;;;3.97;3.57;;;;;;;6.83;100.00;96480.63;5032627;28;102127;-57
2022/10/23 04:40:58;;;;;;;5.30;3.87;;;;;;;6.94;100.00;96482.50;5028761;28;105579;-55
2022/10/23 04:43:25;;;;;;;4.97;4.10;;;;;;;6.94;100.00;96483.31;5029192;28;101935;-58
2022/10/23 04:45:52;;;;;;;5.03;4.53;;;;;;;6.95;100.00;96484.09;5028966;28;105166;-53
2022/10/23 04:48:21;;;;;;;4.40;4.00;;;;;;;6.98;100.00;96481.03;5028570;28;105405;-57
2022/10/23 04:51:17;;;;;;;4.30;3.90;;;;;;;7.00;100.00;96485.06;5024693;28;101939;-57
2022/10/23 04:54:03;;;;;;;5.90;4.20;;;;;;;7.01;100.00;96486.66;5027195;28;101989;-58
2022/10/23 04:56:50;;;;;;;3.53;3.23;;;;;;;6.90;100.00;96481.31;5026951;28;102224;-56
2022/10/23 04:59:20;;;;;;;2.90;2.70;;;;;;;6.80;100.00;96470.47;5027744;28;101891;-57
2022/10/23 05:01:48;;;;;;;3.03;2.73;;;;;;;6.85;100.00;96475.91;5031892;28;104956;-57
2022/10/23 05:04:17;;;;;;;2.87;2.67;;;;;;;6.84;100.00;96476.94;5028604;28;102542;-56
2022/10/23 05:07:08;;;;;;;3.00;2.80;;;;;;;6.85;100.00;96473.25;5018889;27;102824;-57
2022/10/23 05:10:02;;;;;;;2.93;2.70;;;;;;;6.84;100.00;96472.47;5028350;28;105182;-54
2022/10/23 05:12:39;;;;;;;3.63;2.93;;;;;;;6.82;100.00;96469.22;5028484;28;101788;-57
2022/10/23 05:15:08;;;;;;;3.37;3.07;;;;;;;6.86;100.00;96474.88;5028802;28;105117;-55
2022/10/23 05:17:39;;;;;;;3.10;2.87;;;;;;;6.88;100.00;96464.91;5028278;28;105266;-54
2022/10/23 05:20:11;;;;;;;3.03;2.73;;;;;;;6.95;100.00;96465.59;5028669;28;101821;-56
2022/10/23 05:22:43;;;;;;;2.90;2.70;;;;;;;6.95;100.00;96470.88;5028529;28;105747;-57
2022/10/23 05:25:13;;;;;;;3.10;2.90;;;;;;;6.96;100.00;96469.84;5030861;28;101819;-57
2022/10/23 05:27:47;;;;;;;2.87;2.63;;;;;;;6.95;100.00;96462.94;5028919;28;104894;-56
2022/10/23 05:30:16;;;;;;;5.10;2.93;;;;;;;6.98;100.00;96465.16;5027995;28;105411;-57
2022/10/23 05:32:44;;;;;;;3.67;2.90;;;;;;;7.01;100.00;96459.41;5028373;28;101859;-54
2022/10/23 05:35:14;;;;;;;3.87;3.43;;;;;;;6.95;100.00;96465.59;5028174;28;104791;-57
2022/10/23 05:37:47;;;;;;;4.00;3.60;;;;;;;6.99;100.00;96469.41;5027973;28;103867;-58
2022/10/23 05:40:20;;;;;;;3.37;3.17;;;;;;;7.01;100.00;96469.97;5028517;28;101975;-57
2022/10/23 05:42:52;;;;;;;5.73;4.13;;;;;;;7.01;100.00;96467.34;5028606;28;105653;-59
2022/10/23 05:45:26;;;;;;;4.97;3.53;;;;;;;7.05;100.00;96476.44;5030876;28;103832;-59
2022/10/23 05:48:25;;;;;;;3.60;3.30;;;;;;;7.05;100.00;96479.06;5016931;27;102796;-59
2022/10/23 05:51:19;;;;;;;3.73;3.40;;;;;;;7.11;100.00;96472.88;5028018;27;103751;-59
2022/10/23 05:53:58;;;;;;;5.27;4.07;;;;;;;7.15;100.00;96461.63;5013547;28;102198;-59
2022/10/23 05:56:56;;;;;;;4.13;3.73;;;;;;;7.12;100.00;96454.16;5027956;28;104784;-59
2022/10/23 05:59:33;;;;;;;3.53;3.23;;;;;;;7.10;100.00;96458.06;5028050;28;102534;-59
2022/10/23 06:02:11;;;;;;;2.80;2.60;;;;;;;7.11;100.00;96457.03;5027703;28;102013;-59
2022/10/23 06:04:53;;;;;;;3.20;2.40;;;;;;;7.22;100.00;96459.69;5028056;28;105000;-59
2022/10/23 06:07:30;;;;;;;5.33;2.53;;;;;;;7.35;100.00;96463.94;5025969;27;102454;-59
2022/10/23 06:09:58;;;;;;;4.40;3.00;;;;;;;7.23;100.00;96469.25;5031731;27;101911;-58
2022/10/23 06:12:25;;;;;;;2.53;2.33;;;;;;;7.13;100.00;96487.50;5030861;28;105896;-59
2022/10/23 06:14:54;;;;;;;4.57;2.50;;;;;;;7.23;100.00;96487.75;5031184;28;101989;-59
2022/10/23 06:17:29;;;;;;;2.90;2.70;;;;;;;7.20;100.00;96492.69;5031320;28;105389;-59
2022/10/23 06:20:01;;;;;;;3.60;3.30;;;;;;;7.21;100.00;96489.00;5014295;28;104103;-59
2022/10/23 06:22:31;;;;;;;2.67;2.40;;;;;;;7.27;100.00;96480.16;5031473;28;101953;-59
2022/10/23 06:25:10;;;;;;;3.27;3.07;;;;;;;7.42;100.00;96491.91;5030864;28;104783;-59
2022/10/23 06:27:40;;;;;;;4.40;3.83;;;;;;;7.48;100.00;96485.72;5030855;28;105121;-59
2022/10/23 06:30:14;;;;;;;3.63;3.43;;;;;;;7.38;100.00;96474.91;5031580;28;101952;-59
2022/10/23 06:32:41;;;;;;;3.53;2.90;;;;;;;7.34;100.00;96468.44;5034054;28;106227;-59
2022/10/23 06:35:11;;;;;;;3.00;2.80;;;;;;;7.29;100.00;96470.16;5031651;28;101747;-59
2022/10/23 06:41:01;;;;;;;3.20;2.60;;;;;;;7.60;100.00;96473.31;5030934;28;105335;-59
2022/10/23 06:43:34;;;;;;;6.00;2.90;;;;;;;7.65;100.00;96470.78;5031271;28;102416;-59
2022/10/23 06:46:50;;;;;;;4.33;3.00;;;;;;;7.74;100.00;96479.19;5031329;28;105083;-59
2022/10/23 06:49:36;;;;;;;3.03;2.83;;;;;;;7.97;100.00;96479.19;5008907;28;102259;-58
2022/10/23 06:52:53;;;;;;;2.93;2.73;;;;;;;8.19;100.00;96469.59;5011036;28;101902;-59
2022/10/23 06:55:22;;;;;;;4.63;3.20;;;;;;;8.18;100.00;96465.34;5027580;28;105614;-58
2022/10/23 06:57:50;;;;;;;3.97;3.67;;;;;;;8.24;100.00;96470.50;5030770;28;105344;-59
2022/10/23 07:00:20;;;;;;;3.60;3.30;;;;;;;8.38;100.00;96468.41;5011232;28;105039;-59
2022/10/23 07:02:53;;;;;;;3.47;3.17;;;;;;;8.54;100.00;96460.53;5010372;28;105509;-59
2022/10/23 07:05:21;;;;;;;3.77;3.50;;;;;;;8.57;100.00;96459.28;5031052;28;103156;-59
2022/10/23 07:08:07;;;;;;;5.57;5.00;;;;;;;8.56;100.00;96455.00;5031047;28;105241;-59
2022/10/23 07:10:41;;;;;;;6.13;5.03;;;;;;;8.66;100.00;96457.84;5030409;28;105005;-58
2022/10/23 07:13:09;;;;;;;7.10;5.03;;;;;;;8.78;100.00;96461.28;5030828;28;101875;-59
2022/10/23 07:15:58;;;;;;;3.77;3.37;;;;;;;8.99;100.00;96465.91;5030948;28;105227;-59
2022/10/23 07:18:29;;;;;;;3.47;3.27;;;;;;;9.08;100.00;96470.56;5030292;28;105455;-59
2022/10/23 07:21:19;;;;;;;2.97;2.77;;;;;;;9.05;100.00;96472.91;5023826;27;101774;-59
2022/10/23 07:23:47;;;;;;;3.17;2.97;;;;;;;9.08;100.00;96472.41;5029298;28;104816;-59
2022/10/23 07:26:26;;;;;;;3.77;3.47;;;;;;;9.09;100.00;96463.41;5030416;28;103386;-59
2022/10/23 07:28:54;;;;;;;3.13;2.93;;;;;;;9.02;100.00;96466.22;5031820;28;103164;-58
2022/10/23 07:31:24;;;;;;;2.80;2.70;;;;;;;9.02;100.00;96462.75;5029942;28;105166;-59
2022/10/23 07:34:13;;;;;;;4.73;3.77;;;;;;;8.96;100.00;96464.53;5019910;27;101905;-59
2022/10/23 07:37:31;;;;;;;3.20;3.00;;;;;;;9.11;100.00;96472.72;5030394;28;105144;-59
2022/10/23 07:40:01;;;;;;;2.40;2.30;;;;;;;9.26;100.00;96462.38;5029756;28;105218;-59
2022/10/23 07:42:28;;;;;;;2.53;2.20;;;;;;;9.35;100.00;96473.41;5033865;28;101948;-59
2022/10/23 07:44:54;;;;;;;2.20;2.10;;;;;;;9.44;100.00;96466.66;5029679;28;105333;-59
2022/10/23 07:47:31;;;;;;;2.17;2.07;;;;;;;9.50;100.00;96473.66;5030522;28;101927;-59
2022/10/23 07:50:02;;;;;;;2.33;2.20;;;;;;;9.61;100.00;96475.44;5030563;28;105271;-59
2022/10/23 07:52:49;;;;;;;2.60;2.40;;;;;;;9.68;100.00;96476.88;5029727;28;105876;-59
2022/10/23 07:55:17;;;;;;;4.13;3.33;;;;;;;9.73;100.00;96468.19;5029828;28;101974;-59
2022/10/23 07:58:16;;;;;;;4.30;3.90;;;;;;;9.98;100.00;96474.66;5030003;28;104699;-59
2022/10/23 08:00:50;;;;;;;4.47;4.00;;;;;;;10.25;100.00;96469.50;5029297;28;105851;-59
2022/10/23 08:03:26;;;;;;;17.83;10.77;;;;;;;10.53;100.00;96482.63;5030196;28;102036;-59
2022/10/23 08:05:57;;;;;;;28.67;16.27;;;;;;;10.56;100.00;96479.44;5031999;28;104816;-59
2022/10/23 08:08:25;;;;;;;28.03;15.10;;;;;;;10.71;100.00;96477.78;5028958;28;101789;-59
2022/10/23 08:10:56;;;;;;;24.60;13.37;;;;;;;10.91;100.00;96464.69;5029048;28;105358;-58
2022/10/23 08:13:28;;;;;;;11.17;7.90;;;;;;;11.10;100.00;96467.81;5028449;28;105630;-58
2022/10/23 08:16:25;;;;;;;8.43;5.77;;;;;;;11.38;100.00;96459.56;5029883;28;101847;-58
2022/10/23 08:19:15;;;;;;;7.07;5.83;;;;;;;11.65;100.00;96458.50;5030667;28;103337;-58
2022/10/23 08:22:10;;;;;;;8.10;5.70;;;;;;;11.85;100.00;96457.84;5029262;28;105443;-58
2022/10/23 08:24:37;;;;;;;5.43;4.43;;;;;;;12.29;100.00;96459.16;5029664;28;102026;-59
2022/10/23 08:27:29;;;;;;;7.60;5.20;;;;;;;12.31;100.00;96454.41;5029565;28;104919;-59
2022/10/23 08:29:56;;;;;;;2.50;2.30;;;;;;;12.28;100.00;96449.56;5032255;28;105476;-58
2022/10/23 08:32:28;;;;;;;2.57;2.37;;;;;;;12.31;100.00;96443.72;5029640;27;104607;-57
2022/10/23 08:34:58;;;;;;;2.33;2.23;;;;;;;12.44;100.00;96440.59;5028551;28;104799;-58
2022/10/23 08:38:00;;;;;;;1.70;1.60;;;;;;;12.51;100.00;96443.81;5029653;28;101929;-58
2022/10/23 08:40:31;;;;;;;2.13;1.97;;;;;;;12.52;100.00;96442.72;5029411;28;103915;-58
2022/10/23 08:43:32;;;;;;;1.67;1.57;;;;;;;12.55;100.00;96447.56;5030035;28;103738;-59
2022/10/23 08:46:22;;;;;;;1.80;1.60;;;;;;;12.59;100.00;96436.09;5029343;28;102103;-57
2022/10/23 08:49:30;;;;;;;3.77;2.47;;;;;;;12.53;100.00;96442.47;5019187;27;102346;-59
2022/10/23 08:52:26;;;;;;;3.27;2.13;;;;;;;12.71;100.00;96444.66;5028749;28;105945;-58
2022/10/23 08:55:00;;;;;;;3.50;2.07;;;;;;;12.94;100.00;96440.75;5033731;28;101924;-58
2022/10/23 08:57:36;;;;;;;1.30;1.20;;;;;;;12.85;100.00;96426.28;5030193;27;102524;-59
2022/10/23 09:00:07;;;;;;;1.70;1.60;;;;;;;13.10;100.00;96426.41;5028936;28;102000;-60
2022/10/23 09:02:38;;;;;;;2.53;1.00;;;;;;;13.19;100.00;96430.94;5030647;28;102875;-58
2022/10/23 09:05:15;;;;;;;1.00;1.00;;;;;;;13.26;100.00;96420.81;5029936;28;103116;-59
2022/10/23 09:08:04;;;;;;;1.10;1.10;;;;;;;13.34;100.00;96416.78;5030711;27;101766;-59
2022/10/23 09:10:46;;;;;;;1.40;1.30;;;;;;;13.62;100.00;96418.94;5029073;28;103517;-58
2022/10/23 09:13:32;;;;;;;1.17;1.07;;;;;;;13.50;100.00;96415.72;5029782;28;102682;-59
2022/10/23 09:16:41;;;;;;;1.00;1.00;;;;;;;13.71;100.00;96417.31;5030727;28;101678;-58
2022/10/23 09:19:14;;;;;;;1.17;1.07;;;;;;;14.16;100.00;96427.94;5032004;28;104046;-58
2022/10/23 09:21:45;;;;;;;1.33;1.20;;;;;;;13.97;100.00;96418.91;5030657;28;101750;-56
2022/10/23 09:24:16;;;;;;;0.80;0.80;;;;;;;14.12;100.00;96419.66;5029055;28;105626;-58
2022/10/23 09:27:16;;;;;;;1.20;1.10;;;;;;;14.10;100.00;96415.66;5029845;28;103242;-59
2022/10/23 09:29:49;;;;;;;1.07;1.00;;;;;;;14.17;100.00;96418.84;5028942;28;101840;-58
2022/10/23 09:32:16;;;;;;;3.47;0.90;;;;;;;14.19;100.00;96406.84;5030528;28;102517;-57
2022/10/23 09:34:52;;;;;;;1.00;0.90;;;;;;;14.08;100.00;96413.28;5028192;28;104207;-58
2022/10/23 09:37:25;;;;;;;1.53;0.87;;;;;;;14.15;100.00;96405.75;5030089;28;102311;-57
2022/10/23 09:40:02;;;;;;;1.20;1.10;;;;;;;14.38;100.00;96401.72;5027991;28;103481;-58
2022/10/23 09:42:31;;;;;;;3.57;1.20;;;;;;;14.37;100.00;96400.88;5031297;28;104373;-57
2022/10/23 09:44:58;;;;;;;1.20;1.20;;;;;;;14.48;100.00;96402.44;5029645;27;102348;-57
2022/10/23 09:47:27;;;;;;;1.83;1.20;;;;;;;14.58;100.00;96388.22;5031546;28;104265;-57
2022/10/23 09:49:57;;;;;;;1.10;1.10;;;;;;;14.94;100.00;96395.78;5033168;27;101748;-58
2022/10/23 09:52:30;;;;;;;0.80;0.80;;;;;;;15.60;100.00;96386.19;5031609;28;103591;-59
2022/10/23 09:54:59;;;;;;;0.80;0.80;;;;;;;15.75;100.00;96387.97;5030670;28;105468;-62
2022/10/23 09:57:35;;;;;;;1.10;1.10;;;;;;;16.00;100.00;96390.38;5033191;28;101890;-60
2022/10/23 10:00:15;;;;;;;1.00;1.00;;;;;;;16.39;100.00;96391.84;5033193;27;102298;-60
2022/10/23 10:02:44;;;;;;;1.07;0.90;;;;;;;16.61;100.00;96385.94;5036279;28;102752;-61
2022/10/23 10:05:31;;;;;;;2.10;0.97;;;;;;;16.87;100.00;96374.59;5030182;28;102014;-61
2022/10/23 10:08:21;;;;;;;0.90;0.90;;;;;;;17.11;100.00;96371.84;5031074;28;105641;-60
2022/10/23 10:10:52;;;;;;;0.70;0.70;;;;;;;17.31;100.00;96356.19;5032812;28;101864;-61
2022/10/23 10:13:41;;;;;;;0.77;0.77;;;;;;;17.50;100.00;96354.28;5033366;27;102277;-61
2022/10/23 10:16:16;;;;;;;1.23;1.13;;;;;;;17.60;100.00;96356.03;5030804;28;103812;-60
2022/10/23 10:18:51;;;;;;;2.97;1.13;;;;;;;17.38;100.00;96342.38;5031611;28;102366;-60
2022/10/23 10:21:21;;;;;;;1.57;0.90;;;;;;;16.91;100.00;96343.38;5032436;27;102788;-61
2022/10/23 10:23:56;;;;;;;1.57;0.80;;;;;;;17.35;100.00;96346.47;5031868;27;102649;-61
2022/10/23 10:26:35;;;;;;;2.10;0.80;;;;;;;17.15;100.00;96340.59;5036415;28;101976;-61
2022/10/23 10:29:17;;;;;;;0.70;0.70;;;;;;;17.46;100.00;96342.53;5030532;28;103632;-61
2022/10/23 10:31:55;;;;;;;1.97;0.80;;;;;;;17.49;100.00;96336.56;5032851;28;101702;-60
2022/10/23 10:34:30;;;;;;;1.23;0.70;;;;;;;17.34;100.00;96339.47;5030717;28;105071;-61
2022/10/23 10:37:05;;;;;;;0.63;0.63;;;;;;;17.18;100.00;96324.69;5030563;28;105915;-61
2022/10/23 10:39:42;;;;;;;1.43;0.70;;;;;;;17.61;100.00;96319.97;5030823;28;102682;-60
2022/10/23 10:42:39;;;;;;;1.43;0.73;;;;;;;18.21;100.00;96316.13;5031138;28;105041;-60
2022/10/23 10:45:27;;;;;;;2.23;0.80;;;;;;;18.61;100.00;96309.91;5030259;28;105509;-61
2022/10/23 10:48:12;;;;;;;1.13;0.63;;;;;;;18.39;100.00;96301.78;5032666;28;102021;-61
2022/10/23 10:51:05;;;;;;;1.37;0.80;;;;;;;18.26;100.00;96308.72;5034424;28;103466;-63
2022/10/23 10:53:55;;;;;;;0.93;0.60;;;;;;;18.19;100.00;96310.22;5030922;28;104283;-62
2022/10/23 10:56:26;;;;;;;0.90;0.80;;;;;;;18.30;100.00;96303.53;5032251;28;103061;-62
2022/10/23 10:58:56;;;;;;;1.30;0.80;;;;;;;18.23;100.00;96298.59;5031766;28;102638;-61
2022/10/23 11:01:30;;;;;;;0.63;0.63;;;;;;;18.26;100.00;96281.81;5031942;28;101881;-65
2022/10/23 11:04:12;;;;;;;0.60;0.60;;;;;;;18.34;100.00;96278.47;5030253;28;105001;-62
2022/10/23 11:06:43;;;;;;;0.63;0.60;;;;;;;18.32;100.00;96271.78;5028847;28;106300;-64
2022/10/23 11:09:17;;;;;;;0.73;0.70;;;;;;;18.41;100.00;96269.94;5032076;27;101868;-61
2022/10/23 11:11:44;;;;;;;0.70;0.60;;;;;;;18.44;100.00;96269.38;5032354;28;102534;-62
2022/10/23 11:14:16;;;;;;;1.43;0.70;;;;;;;18.69;100.00;96268.81;5033371;28;104042;-63
2022/10/23 11:16:47;;;;;;;0.70;0.70;;;;;;;18.79;100.00;96258.59;5032270;27;102426;-62
2022/10/23 11:19:21;;;;;;;1.53;0.70;;;;;;;18.88;100.00;96258.66;5031277;28;102621;-62
2022/10/23 11:21:56;;;;;;;0.60;0.60;;;;;;;19.11;100.00;96249.47;5031605;28;102092;-63
2022/10/23 11:25:14;;;;;;;1.30;0.77;;;;;;;18.72;100.00;96236.66;5031898;28;102331;-62
2022/10/23 11:27:57;;;;;;;0.50;0.50;;;;;;;18.65;100.00;96240.88;4965167;28;105562;-62
2022/10/23 11:30:31;;;;;;;0.60;0.60;;;;;;;18.58;100.00;96243.22;5019265;28;102028;-62
2022/10/23 11:33:26;;;;;;;0.60;0.60;;;;;;;18.75;100.00;96235.25;5030440;28;105546;-62
2022/10/23 11:36:05;;;;;;;0.53;0.50;;;;;;;18.62;100.00;96234.22;5031190;28;102719;-62
2022/10/23 11:38:35;;;;;;;0.73;0.73;;;;;;;18.88;100.00;96239.78;5035226;27;101814;-62
2022/10/23 11:41:05;;;;;;;0.80;0.80;;;;;;;18.81;100.00;96228.66;5030753;28;102611;-62
2022/10/23 11:43:34;;;;;;;3.47;0.80;;;;;;;19.23;100.00;96237.06;5031327;28;101987;-62
2022/10/23 11:46:13;;;;;;;1.67;0.60;;;;;;;19.11;100.00;96233.28;5031598;27;102471;-62
2022/10/23 11:48:43;;;;;;;1.97;1.00;;;;;;;18.82;100.00;96227.53;5029313;28;104166;-62
2022/10/23 11:51:28;;;;;;;1.13;0.63;;;;;;;19.07;100.00;96235.03;5029895;28;102036;-62
2022/10/23 11:54:06;;;;;;;2.10;0.60;;;;;;;18.77;100.00;96216.88;5031244;28;102331;-62
2022/10/23 11:56:34;;;;;;;1.23;0.90;;;;;;;18.97;100.00;96221.78;5030407;28;103152;-62
2022/10/23 11:59:22;;;;;;;0.53;0.53;;;;;;;18.86;100.00;96215.06;5031536;28;102514;-62
2022/10/23 12:01:52;;;;;;;1.50;0.57;;;;;;;19.10;100.00;96207.44;5033783;27;102813;-62